createdAt,value
2023-05-17T00:01:39.922Z,97.09
2023-05-17T00:04:06.703Z,97.93
2023-05-17T00:06:35.491Z,98.96
2023-05-17T00:09:02.569Z,98.63
2023-05-17T00:11:30.431Z,98.05
2023-05-17T00:13:57.647Z,97.28
2023-05-17T00:16:24.356Z,95.80
2023-05-17T00:18:51.600Z,95.94
2023-05-17T00:21:18.882Z,96.33
2023-05-17T00:23:47.951Z,96.55
2023-05-17T00:26:15.262Z,96.81
2023-05-17T00:28:42.438Z,97.08
2023-05-17T00:31:10.009Z,97.16
2023-05-17T00:33:37.315Z,97.36
2023-05-17T00:36:05.667Z,96.28
2023-05-17T00:38:32.557Z,96.64
2023-05-17T00:41:01.627Z,97.72
2023-05-17T00:43:29.419Z,96.44
2023-05-17T00:45:57.053Z,96.17
2023-05-17T00:48:25.457Z,96.49
2023-05-17T00:50:53.218Z,96.36
2023-05-17T00:53:21.761Z,96.07
2023-05-17T00:55:49.720Z,97.01
2023-05-17T00:58:18.715Z,96.96
2023-05-17T01:00:47.257Z,97.08
2023-05-17T01:03:14.381Z,97.38
2023-05-17T01:05:42.043Z,97.70
2023-05-17T01:08:09.489Z,96.37
2023-05-17T01:10:44.835Z,96.78
2023-05-17T01:13:18.958Z,97.23
2023-05-17T01:15:57.291Z,97.61
2023-05-17T01:18:35.318Z,97.23
2023-05-17T01:21:12.970Z,97.19
2023-05-17T01:23:54.787Z,97.04
2023-05-17T01:26:36.460Z,97.26
2023-05-17T01:29:06.065Z,97.38
2023-05-17T01:31:34.308Z,98.25
2023-05-17T01:34:01.569Z,98.40
2023-05-17T01:36:29.296Z,99.11
2023-05-17T01:38:56.768Z,99.55
2023-05-17T01:41:29.682Z,99.36
2023-05-17T01:44:07.813Z,97.99
2023-05-17T01:46:40.945Z,97.84
2023-05-17T01:49:13.752Z,98.50
2023-05-17T01:51:48.848Z,98.46
2023-05-17T01:54:20.457Z,98.83
2023-05-17T01:56:56.460Z,98.79
2023-05-17T01:59:26.286Z,99.12
2023-05-17T02:01:56.375Z,99.39
2023-05-17T02:04:26.318Z,98.82
2023-05-17T02:06:54.190Z,98.50
2023-05-17T02:09:21.578Z,98.03
2023-05-17T02:11:49.281Z,98.05
2023-05-17T02:14:16.767Z,99.08
2023-05-17T02:16:45.615Z,99.46
2023-05-17T02:19:12.397Z,99.67
2023-05-17T02:21:39.356Z,100.00
2023-05-17T02:24:06.692Z,100.00
2023-05-17T02:26:33.923Z,100.00
2023-05-17T02:29:01.115Z,100.00
2023-05-17T02:31:28.660Z,100.00
2023-05-17T02:33:58.415Z,100.00
2023-05-17T02:36:25.693Z,100.00
2023-05-17T02:38:53.053Z,100.00
2023-05-17T02:41:20.370Z,100.00
2023-05-17T02:43:47.771Z,100.00
2023-05-17T02:46:15.071Z,100.00
2023-05-17T02:48:43.220Z,100.00
2023-05-17T02:51:11.536Z,100.00
2023-05-17T02:53:38.785Z,100.00
2023-05-17T02:56:06.689Z,100.00
2023-05-17T02:58:34.167Z,100.00
2023-05-17T03:01:01.115Z,100.00
2023-05-17T03:03:28.481Z,100.00
2023-05-17T03:05:59.884Z,100.00
2023-05-17T03:08:29.515Z,100.00
2023-05-17T03:10:56.349Z,100.00
2023-05-17T03:13:23.965Z,100.00
2023-05-17T03:15:51.392Z,100.00
2023-05-17T03:18:18.859Z,100.00
2023-05-17T03:20:46.330Z,100.00
2023-05-17T03:23:13.719Z,100.00
2023-05-17T03:25:42.923Z,100.00
2023-05-17T03:28:10.159Z,100.00
2023-05-17T03:30:39.686Z,100.00
2023-05-17T03:33:07.246Z,100.00
2023-05-17T03:35:34.826Z,100.00
2023-05-17T03:38:02.364Z,100.00
2023-05-17T03:40:29.570Z,100.00
2023-05-17T03:42:58.226Z,100.00
2023-05-17T03:45:25.957Z,100.00
2023-05-17T03:47:53.445Z,100.00
2023-05-17T03:50:20.338Z,100.00
2023-05-17T03:52:47.554Z,100.00
2023-05-17T03:55:14.721Z,100.00
2023-05-17T03:57:42.038Z,100.00
2023-05-17T04:00:12.093Z,100.00
2023-05-17T04:02:39.520Z,100.00
2023-05-17T04:05:07.654Z,100.00
2023-05-17T04:07:35.268Z,100.00
2023-05-17T04:10:02.578Z,100.00
2023-05-17T04:12:29.264Z,100.00
2023-05-17T04:14:56.748Z,100.00
2023-05-17T04:17:25.174Z,100.00
2023-05-17T04:19:52.603Z,100.00
2023-05-17T04:22:20.598Z,100.00
2023-05-17T04:24:48.209Z,100.00
2023-05-17T04:27:14.862Z,100.00
2023-05-17T04:29:42.030Z,100.00
2023-05-17T04:32:09.376Z,100.00
2023-05-17T04:34:37.678Z,100.00
2023-05-17T04:37:07.370Z,100.00
2023-05-17T04:39:34.719Z,100.00
2023-05-17T04:42:01.532Z,100.00
2023-05-17T04:44:29.335Z,100.00
2023-05-17T04:46:57.094Z,100.00
2023-05-17T04:49:24.372Z,100.00
2023-05-17T04:51:53.205Z,100.00
2023-05-17T04:54:20.565Z,100.00
2023-05-17T04:56:47.502Z,100.00
2023-05-17T04:59:15.541Z,100.00
2023-05-17T05:01:42.877Z,100.00
2023-05-17T05:04:10.556Z,100.00
2023-05-17T05:06:37.526Z,100.00
2023-05-17T05:09:06.715Z,100.00
2023-05-17T05:11:34.399Z,100.00
2023-05-17T05:14:02.223Z,100.00
2023-05-17T05:16:29.361Z,100.00
2023-05-17T05:18:56.893Z,100.00
2023-05-17T05:21:24.281Z,100.00
2023-05-17T05:23:51.757Z,100.00
2023-05-17T05:26:20.207Z,100.00
2023-05-17T05:28:47.968Z,100.00
2023-05-17T05:31:15.242Z,100.00
2023-05-17T05:33:42.545Z,100.00
2023-05-17T05:36:10.378Z,100.00
2023-05-17T05:38:37.660Z,100.00
2023-05-17T05:41:04.935Z,100.00
2023-05-17T05:43:34.261Z,100.00
2023-05-17T05:46:01.886Z,100.00
2023-05-17T05:48:28.747Z,100.00
2023-05-17T05:50:56.447Z,100.00
2023-05-17T05:53:23.901Z,100.00
2023-05-17T05:55:51.858Z,100.00
2023-05-17T05:58:19.270Z,100.00
2023-05-17T06:00:49.337Z,100.00
2023-05-17T06:03:16.087Z,100.00
2023-05-17T06:05:42.923Z,98.13
2023-05-17T06:08:10.774Z,97.82
2023-05-17T06:10:38.076Z,98.11
2023-05-17T06:13:05.888Z,98.33
2023-05-17T06:15:34.382Z,95.06
2023-05-17T06:18:03.354Z,94.24
2023-05-17T06:20:31.196Z,92.25
2023-05-17T06:22:58.710Z,92.84
2023-05-17T06:25:26.168Z,91.59
2023-05-17T06:27:53.816Z,87.88
2023-05-17T06:30:21.192Z,82.43
2023-05-17T06:32:48.585Z,80.85
2023-05-17T06:35:17.506Z,81.15
2023-05-17T06:37:44.739Z,79.70
2023-05-17T06:40:16.450Z,79.17
2023-05-17T06:42:44.955Z,78.92
2023-05-17T06:45:12.644Z,80.59
2023-05-17T06:47:40.141Z,82.40
2023-05-17T06:50:09.589Z,82.69
2023-05-17T06:52:38.361Z,82.42
2023-05-17T06:55:06.504Z,82.62
2023-05-17T06:57:34.152Z,84.01
2023-05-17T07:00:01.404Z,81.81
2023-05-17T07:02:28.743Z,80.63
2023-05-17T07:04:56.367Z,81.02
2023-05-17T07:07:23.633Z,83.20
2023-05-17T07:09:52.945Z,84.68
2023-05-17T07:12:20.349Z,88.15
2023-05-17T07:14:47.877Z,89.52
2023-05-17T07:17:15.129Z,91.26
2023-05-17T07:19:42.803Z,90.89
2023-05-17T07:22:10.204Z,89.96
2023-05-17T07:24:37.498Z,90.25
2023-05-17T07:27:06.686Z,92.25
2023-05-17T07:29:34.551Z,93.43
2023-05-17T07:32:01.898Z,93.83
2023-05-17T07:34:30.699Z,91.34
2023-05-17T07:36:57.400Z,89.95
2023-05-17T07:39:24.624Z,89.80
2023-05-17T07:41:52.723Z,88.69
2023-05-17T07:44:21.386Z,87.29
2023-05-17T07:46:49.213Z,89.50
2023-05-17T07:49:16.324Z,88.99
2023-05-17T07:51:43.711Z,89.93
2023-05-17T07:54:13.257Z,88.33
2023-05-17T07:56:40.828Z,87.23
2023-05-17T10:06:08.770Z,71.55
2023-05-17T10:08:37.856Z,64.46
2023-05-17T10:11:09.146Z,62.77
2023-05-17T10:13:44.812Z,59.79
2023-05-17T10:16:13.403Z,51.44
2023-05-17T10:18:40.879Z,51.51
2023-05-17T10:21:11.392Z,53.57
2023-05-17T10:23:41.276Z,57.37
2023-05-17T10:26:09.568Z,56.22
2023-05-17T10:28:37.415Z,60.50
2023-05-17T10:31:05.344Z,63.20
2023-05-17T10:33:33.014Z,63.71
2023-05-17T10:36:02.632Z,63.92
2023-05-17T10:38:41.824Z,65.32
2023-05-17T10:41:11.304Z,66.98
2023-05-17T10:43:41.392Z,63.00
2023-05-17T10:46:15.749Z,61.61
2023-05-17T10:48:44.325Z,65.73
2023-05-17T10:51:11.867Z,55.25
2023-05-17T10:54:20.386Z,52.22
2023-05-17T10:56:50.208Z,58.63
2023-05-17T10:59:19.757Z,62.09
2023-05-17T11:01:51.962Z,61.06
2023-05-17T11:04:24.428Z,63.05
2023-05-17T11:07:16.111Z,60.87
2023-05-17T11:09:45.925Z,64.02
2023-05-17T11:12:14.417Z,60.66
2023-05-17T11:14:48.376Z,59.93
2023-05-17T11:17:17.185Z,58.13
2023-05-17T11:19:56.107Z,57.02
2023-05-17T11:22:23.997Z,58.33
2023-05-17T11:24:57.280Z,53.45
2023-05-17T11:27:24.663Z,54.86
2023-05-17T11:29:51.372Z,57.63
2023-05-17T11:32:18.752Z,62.80
2023-05-17T11:34:52.697Z,62.07
2023-05-17T11:37:26.816Z,61.86
2023-05-17T11:40:07.130Z,58.51
2023-05-17T11:42:35.124Z,56.97
2023-05-17T11:45:02.286Z,59.02
2023-05-17T11:47:29.851Z,57.76
2023-05-17T11:50:01.942Z,60.46
2023-05-17T11:52:29.898Z,64.01
2023-05-17T11:54:58.808Z,66.75
2023-05-17T11:57:32.608Z,67.93
2023-05-17T12:00:00.458Z,70.17
2023-05-17T12:02:29.417Z,68.35
2023-05-17T12:04:57.273Z,68.08
2023-05-17T12:07:25.789Z,68.43
2023-05-17T12:09:53.061Z,68.03
2023-05-17T12:12:21.170Z,71.72
2023-05-17T12:14:50.004Z,72.23
2023-05-17T12:17:25.070Z,74.27
2023-05-17T12:19:55.466Z,74.85
2023-05-17T12:22:23.424Z,72.54
2023-05-17T12:24:50.777Z,70.08
2023-05-17T12:27:26.108Z,74.02
2023-05-17T12:29:55.230Z,71.87
2023-05-17T12:32:22.348Z,70.54
2023-05-17T12:34:49.749Z,72.33
2023-05-17T12:37:17.467Z,69.18
2023-05-17T12:39:45.050Z,73.04
2023-05-17T12:42:11.917Z,73.91
2023-05-17T12:44:39.953Z,73.13
2023-05-17T12:47:10.351Z,73.84
2023-05-17T12:49:52.192Z,71.34
2023-05-17T12:52:19.359Z,69.24
2023-05-17T12:54:46.309Z,68.27
2023-05-17T12:57:14.213Z,66.19
2023-05-17T12:59:49.080Z,66.08
2023-05-17T13:02:19.968Z,72.57
2023-05-17T13:04:46.846Z,69.17
2023-05-17T13:07:22.719Z,65.76
2023-05-17T13:09:49.561Z,63.16
2023-05-17T13:12:20.669Z,68.68
2023-05-17T13:14:50.089Z,66.98
2023-05-17T13:17:20.170Z,67.83
2023-05-17T13:19:47.680Z,68.36
2023-05-17T13:22:15.439Z,71.75
2023-05-17T13:24:43.533Z,68.38
2023-05-17T13:27:10.862Z,70.91
2023-05-17T13:29:41.976Z,69.95
2023-05-17T13:32:11.012Z,68.63
2023-05-17T13:34:40.201Z,67.09
2023-05-17T13:37:11.084Z,70.94
2023-05-17T13:39:39.478Z,71.27
2023-05-17T13:42:07.107Z,68.64
2023-05-17T13:44:34.443Z,66.64
2023-05-17T13:47:01.389Z,65.30
2023-05-17T13:49:28.765Z,67.53
2023-05-17T13:51:57.072Z,62.56
2023-05-17T13:54:23.937Z,63.49
2023-05-17T13:56:51.401Z,62.11
2023-05-17T13:59:18.888Z,60.32
2023-05-17T14:01:45.955Z,61.39
2023-05-17T14:04:13.551Z,61.13
2023-05-17T14:06:42.541Z,61.33
2023-05-17T14:09:11.788Z,55.39
2023-05-17T14:11:39.883Z,55.63
2023-05-17T14:14:07.351Z,54.73
2023-05-17T14:16:34.926Z,55.47
2023-05-17T14:19:04.569Z,54.02
2023-05-17T14:21:32.163Z,51.86
2023-05-17T14:23:59.133Z,52.38
2023-05-17T14:26:27.352Z,53.40
2023-05-17T14:28:54.614Z,55.79
2023-05-17T14:31:21.574Z,56.87
2023-05-17T14:33:48.902Z,57.31
2023-05-17T14:36:16.072Z,57.66
2023-05-17T14:38:42.830Z,54.78
2023-05-17T14:41:10.152Z,53.17
2023-05-17T14:43:38.452Z,54.35
2023-05-17T14:46:05.432Z,55.78
2023-05-17T14:48:32.972Z,55.22
2023-05-17T14:51:00.472Z,53.98
2023-05-17T14:53:28.005Z,55.07
2023-05-17T14:55:55.522Z,55.88
2023-05-17T14:58:22.220Z,51.40
2023-05-17T15:00:52.235Z,50.74
2023-05-17T15:03:22.385Z,52.54
2023-05-17T15:05:54.649Z,53.59
2023-05-17T15:08:22.635Z,54.71
2023-05-17T15:10:50.280Z,51.26
2023-05-17T15:13:17.326Z,52.09
2023-05-17T15:15:44.769Z,52.79
2023-05-17T15:18:13.377Z,50.58
2023-05-17T15:20:41.324Z,52.63
2023-05-17T15:23:08.474Z,52.46
2023-05-17T15:25:35.614Z,49.95
2023-05-17T15:28:02.467Z,52.49
2023-05-17T15:30:30.051Z,49.22
2023-05-17T15:32:59.068Z,48.56
2023-05-17T15:35:28.085Z,49.10
2023-05-17T15:37:58.490Z,49.45
2023-05-17T15:40:25.814Z,50.76
2023-05-17T15:42:53.249Z,48.40
2023-05-17T15:45:20.678Z,48.81
2023-05-17T15:47:47.475Z,50.21
2023-05-17T15:50:15.066Z,48.70
2023-05-17T15:52:44.082Z,50.97
2023-05-17T15:55:11.332Z,47.51
2023-05-17T15:57:38.993Z,47.49
2023-05-17T16:00:07.408Z,48.99
2023-05-17T16:02:34.433Z,49.65
2023-05-17T16:05:03.859Z,48.60
2023-05-17T16:07:31.105Z,48.79
2023-05-17T16:09:59.448Z,47.77
2023-05-17T16:12:26.219Z,46.84
2023-05-17T16:14:53.668Z,47.93
2023-05-17T16:17:21.805Z,46.91
2023-05-17T16:19:49.537Z,46.08
2023-05-17T16:22:16.451Z,47.51
2023-05-17T16:24:43.111Z,45.89
2023-05-17T16:27:11.326Z,47.58
2023-05-17T16:29:38.085Z,47.97
2023-05-17T16:32:05.864Z,44.44
2023-05-17T16:34:33.192Z,46.81
2023-05-17T16:36:59.853Z,46.99
2023-05-17T16:39:26.651Z,45.85
2023-05-17T16:41:53.792Z,49.35
2023-05-17T16:44:22.239Z,46.38
2023-05-17T16:46:49.212Z,47.80
2023-05-17T16:49:16.106Z,46.21
2023-05-17T16:51:42.911Z,47.40
2023-05-17T16:54:09.803Z,45.09
2023-05-17T16:56:36.543Z,47.00
2023-05-17T16:59:03.380Z,45.47
2023-05-17T17:01:31.646Z,46.43
2023-05-17T17:03:58.544Z,46.12
2023-05-17T17:06:25.336Z,47.27
2023-05-17T17:08:52.595Z,49.02
2023-05-17T17:11:20.109Z,49.81
2023-05-17T17:13:46.896Z,46.50
2023-05-17T17:16:14.105Z,47.54
2023-05-17T17:18:42.377Z,46.33
2023-05-17T17:21:09.196Z,46.70
2023-05-17T17:23:36.329Z,45.61
2023-05-17T17:26:03.405Z,45.37
2023-05-17T17:28:30.138Z,44.29
2023-05-17T17:30:56.960Z,46.32
2023-05-17T17:33:23.846Z,44.19
2023-05-17T17:35:52.176Z,43.80
2023-05-17T17:38:19.361Z,44.26
2023-05-17T17:40:46.699Z,44.54
2023-05-17T17:43:14.591Z,44.93
2023-05-17T17:45:42.092Z,42.15
2023-05-17T17:48:09.532Z,43.00
2023-05-17T17:50:37.141Z,41.23
2023-05-17T17:53:05.930Z,42.91
2023-05-17T17:55:33.137Z,42.23
2023-05-17T17:58:00.405Z,42.85
2023-05-17T18:00:27.445Z,42.11
2023-05-17T18:02:55.859Z,42.22
2023-05-17T18:05:23.352Z,42.95
2023-05-17T18:07:50.668Z,44.00
2023-05-17T18:10:20.648Z,43.27
2023-05-17T18:12:49.591Z,44.44
2023-05-17T18:15:18.377Z,43.74
2023-05-17T18:17:45.608Z,43.68
2023-05-17T18:20:12.537Z,43.66
2023-05-17T18:22:39.380Z,42.97
2023-05-17T18:25:06.967Z,42.81
2023-05-17T18:27:35.242Z,42.50
2023-05-17T18:30:02.301Z,43.18
2023-05-17T18:32:29.528Z,44.54
2023-05-17T18:34:56.553Z,44.41
2023-05-17T18:37:23.415Z,44.00
2023-05-17T18:39:50.719Z,44.35
2023-05-17T18:42:17.958Z,44.50
2023-05-17T18:44:47.129Z,44.93
2023-05-17T18:47:14.609Z,44.95
2023-05-17T18:49:42.000Z,45.56
2023-05-17T18:52:09.419Z,46.34
2023-05-17T18:54:36.123Z,45.84
2023-05-17T18:57:03.049Z,45.69
2023-05-17T18:59:30.272Z,45.88
2023-05-17T19:01:58.470Z,46.13
2023-05-17T19:04:25.363Z,46.36
2023-05-17T19:06:52.406Z,46.59
2023-05-17T19:09:19.258Z,46.55
2023-05-17T19:11:46.009Z,46.87
2023-05-17T19:14:13.081Z,47.84
2023-05-17T19:16:39.883Z,47.22
2023-05-17T19:19:08.375Z,46.86
2023-05-17T19:21:35.478Z,46.61
2023-05-17T19:24:02.306Z,46.79
2023-05-17T19:26:29.173Z,47.04
2023-05-17T19:28:56.351Z,46.85
2023-05-17T19:31:23.694Z,47.22
2023-05-17T19:33:50.979Z,47.55
2023-05-17T19:36:19.832Z,47.43
2023-05-17T19:38:46.620Z,47.31
2023-05-17T19:41:13.921Z,47.32
2023-05-17T19:43:41.987Z,47.57
2023-05-17T19:46:09.497Z,47.65
2023-05-17T19:48:36.935Z,48.33
2023-05-17T19:51:04.627Z,48.88
2023-05-17T19:53:44.182Z,48.15
2023-05-17T19:56:18.694Z,47.73
2023-05-17T19:58:46.318Z,47.70
2023-05-17T20:01:13.453Z,48.46
2023-05-17T20:03:41.404Z,47.99
2023-05-17T20:06:08.700Z,48.35
2023-05-17T20:08:37.047Z,48.95
2023-05-17T20:11:04.089Z,49.55
2023-05-17T20:13:30.900Z,50.11
2023-05-17T20:15:57.719Z,50.31
2023-05-17T20:18:24.614Z,50.94
2023-05-17T20:20:51.433Z,50.87
2023-05-17T20:23:18.237Z,51.09
2023-05-17T20:25:46.534Z,51.55
2023-05-17T20:28:13.418Z,52.09
2023-05-17T20:30:43.838Z,52.44
2023-05-17T20:33:10.985Z,52.95
2023-05-17T20:35:37.797Z,53.14
2023-05-17T20:38:04.446Z,53.08
2023-05-17T20:40:31.692Z,53.63
2023-05-17T20:43:00.066Z,53.91
2023-05-17T20:45:26.786Z,54.53
2023-05-17T20:47:54.237Z,54.35
2023-05-17T20:50:21.748Z,54.44
2023-05-17T20:52:48.997Z,53.94
2023-05-17T20:55:15.794Z,53.92
2023-05-17T20:57:42.641Z,54.14
2023-05-17T21:00:12.632Z,54.02
2023-05-17T21:02:40.016Z,54.28
2023-05-17T21:05:07.057Z,55.00
2023-05-17T21:07:33.898Z,54.88
2023-05-17T21:10:01.388Z,55.92
2023-05-17T21:12:28.184Z,57.96
2023-05-17T21:15:14.399Z,59.76
2023-05-17T21:17:43.065Z,60.35
2023-05-17T21:20:11.597Z,62.09
2023-05-17T21:22:38.365Z,62.64
2023-05-17T21:25:07.005Z,62.04
2023-05-17T21:27:34.304Z,62.13
2023-05-17T21:30:01.470Z,63.74
2023-05-17T21:32:28.465Z,64.47
2023-05-17T21:35:45.432Z,64.77
2023-05-17T21:39:06.313Z,64.88
2023-05-17T21:41:34.809Z,65.36
2023-05-17T21:44:02.101Z,65.56
2023-05-17T21:46:29.020Z,67.20
2023-05-17T21:48:55.919Z,68.78
2023-05-17T21:51:22.684Z,69.18
2023-05-17T21:53:49.654Z,68.81
2023-05-17T21:56:16.577Z,69.10
2023-05-17T21:58:44.658Z,68.55
2023-05-17T22:01:12.352Z,68.35
2023-05-17T22:03:39.446Z,68.81
2023-05-17T22:06:07.016Z,69.84
2023-05-17T22:08:34.159Z,70.98
2023-05-17T22:11:01.500Z,71.27
2023-05-17T22:13:28.277Z,72.27
2023-05-17T22:15:56.491Z,73.54
2023-05-17T22:18:24.286Z,75.51
2023-05-17T22:20:51.533Z,76.92
2023-05-17T22:23:19.232Z,77.08
2023-05-17T22:25:46.600Z,77.52
2023-05-17T22:28:13.967Z,78.35
2023-05-17T22:30:40.791Z,78.54
2023-05-17T22:33:09.992Z,78.95
2023-05-17T22:35:37.346Z,80.50
2023-05-17T22:38:04.903Z,81.23
2023-05-17T22:40:32.594Z,81.92
2023-05-17T23:54:32.177Z,85.32
2023-05-17T23:57:00.892Z,85.60
2023-05-17T23:59:28.914Z,85.96
